sensor_id;sensor_type;location;lat;lon;timestamp;P1;durP1;ratioP1;P2;durP2;ratioP2
48042;SDS011;33988;47.992;8.820;2022-11-20T00:01:32;2.60;;;1.88;;
48042;SDS011;33988;47.992;8.820;2022-11-20T00:04:00;4.00;;;2.33;;
48042;SDS011;33988;47.992;8.820;2022-11-20T00:06:29;7.80;;;2.45;;
48042;SDS011;33988;47.992;8.820;2022-11-20T00:09:00;4.40;;;2.65;;
48042;SDS011;33988;47.992;8.820;2022-11-20T00:11:28;5.57;;;2.60;;
48042;SDS011;33988;47.992;8.820;2022-11-20T00:13:58;3.33;;;2.38;;
48042;SDS011;33988;47.992;8.820;2022-11-20T00:16:28;8.48;;;2.38;;
48042;SDS011;33988;47.992;8.820;2022-11-20T00:19:00;4.20;;;2.63;;
48042;SDS011;33988;47.992;8.820;2022-11-20T00:21:28;11.55;;;2.42;;
48042;SDS011;33988;47.992;8.820;2022-11-20T00:23:56;9.93;;;2.38;;
48042;SDS011;33988;47.992;8.820;2022-11-20T00:26:24;7.45;;;2.42;;
48042;SDS011;33988;47.992;8.820;2022-11-20T00:28:53;5.75;;;2.83;;
48042;SDS011;33988;47.992;8.820;2022-11-20T00:31:23;6.40;;;3.40;;
48042;SDS011;33988;47.992;8.820;2022-11-20T00:33:51;7.40;;;2.95;;
48042;SDS011;33988;47.992;8.820;2022-11-20T00:36:24;6.30;;;2.35;;
48042;SDS011;33988;47.992;8.820;2022-11-20T00:38:54;6.38;;;1.95;;
48042;SDS011;33988;47.992;8.820;2022-11-20T00:41:28;3.13;;;2.17;;
48042;SDS011;33988;47.992;8.820;2022-11-20T00:43:57;2.28;;;1.77;;
48042;SDS011;33988;47.992;8.820;2022-11-20T00:46:26;2.42;;;1.88;;
48042;SDS011;33988;47.992;8.820;2022-11-20T00:48:54;2.92;;;2.10;;
48042;SDS011;33988;47.992;8.820;2022-11-20T00:51:22;2.38;;;1.73;;
48042;SDS011;33988;47.992;8.820;2022-11-20T00:53:52;2.25;;;1.88;;
48042;SDS011;33988;47.992;8.820;2022-11-20T00:56:26;2.22;;;1.80;;
48042;SDS011;33988;47.992;8.820;2022-11-20T00:58:53;1.88;;;1.63;;
48042;SDS011;33988;47.992;8.820;2022-11-20T01:01:21;2.03;;;1.58;;
48042;SDS011;33988;47.992;8.820;2022-11-20T01:03:53;2.45;;;1.90;;
48042;SDS011;33988;47.992;8.820;2022-11-20T01:06:26;2.00;;;1.55;;
48042;SDS011;33988;47.992;8.820;2022-11-20T01:09:06;1.52;;;1.42;;
48042;SDS011;33988;47.992;8.820;2022-11-20T01:11:38;2.50;;;2.13;;
48042;SDS011;33988;47.992;8.820;2022-11-20T01:14:15;2.80;;;2.00;;
48042;SDS011;33988;47.992;8.820;2022-11-20T01:16:48;2.75;;;2.05;;
48042;SDS011;33988;47.992;8.820;2022-11-20T01:19:19;2.58;;;2.10;;
48042;SDS011;33988;47.992;8.820;2022-11-20T01:21:50;3.15;;;2.15;;
48042;SDS011;33988;47.992;8.820;2022-11-20T01:24:20;2.63;;;2.20;;
48042;SDS011;33988;47.992;8.820;2022-11-20T01:26:49;4.80;;;2.15;;
48042;SDS011;33988;47.992;8.820;2022-11-20T01:29:18;10.25;;;2.33;;
48042;SDS011;33988;47.992;8.820;2022-11-20T01:31:50;3.83;;;2.15;;
48042;SDS011;33988;47.992;8.820;2022-11-20T01:34:19;2.17;;;1.95;;
48042;SDS011;33988;47.992;8.820;2022-11-20T01:36:48;2.92;;;2.10;;
48042;SDS011;33988;47.992;8.820;2022-11-20T01:39:17;3.17;;;2.33;;
48042;SDS011;33988;47.992;8.820;2022-11-20T01:41:48;3.42;;;2.63;;
48042;SDS011;33988;47.992;8.820;2022-11-20T01:47:40;4.43;;;2.92;;
48042;SDS011;33988;47.992;8.820;2022-11-20T01:50:14;3.28;;;2.38;;
48042;SDS011;33988;47.992;8.820;2022-11-20T01:52:56;3.20;;;2.50;;
48042;SDS011;33988;47.992;8.820;2022-11-20T01:55:39;3.05;;;2.20;;
48042;SDS011;33988;47.992;8.820;2022-11-20T01:58:13;2.47;;;1.90;;
48042;SDS011;33988;47.992;8.820;2022-11-20T02:00:40;3.17;;;1.83;;
48042;SDS011;33988;47.992;8.820;2022-11-20T02:03:11;2.65;;;2.10;;
48042;SDS011;33988;47.992;8.820;2022-11-20T02:08:35;2.63;;;1.80;;
48042;SDS011;33988;47.992;8.820;2022-11-20T02:11:09;2.08;;;1.85;;
48042;SDS011;33988;47.992;8.820;2022-11-20T02:13:39;1.92;;;1.63;;
48042;SDS011;33988;47.992;8.820;2022-11-20T02:18:59;2.60;;;1.65;;
48042;SDS011;33988;47.992;8.820;2022-11-20T02:26:51;2.08;;;1.85;;
48042;SDS011;33988;47.992;8.820;2022-11-20T02:29:47;2.88;;;2.08;;
48042;SDS011;33988;47.992;8.820;2022-11-20T02:32:21;2.00;;;1.73;;
48042;SDS011;33988;47.992;8.820;2022-11-20T02:34:57;2.20;;;1.92;;
48042;SDS011;33988;47.992;8.820;2022-11-20T02:37:27;3.10;;;2.28;;
48042;SDS011;33988;47.992;8.820;2022-11-20T02:40:02;2.47;;;2.25;;
48042;SDS011;33988;47.992;8.820;2022-11-20T02:42:29;2.17;;;1.98;;
48042;SDS011;33988;47.992;8.820;2022-11-20T02:44:57;2.55;;;2.17;;
48042;SDS011;33988;47.992;8.820;2022-11-20T02:47:26;2.67;;;1.90;;
48042;SDS011;33988;47.992;8.820;2022-11-20T02:49:55;2.30;;;1.83;;
48042;SDS011;33988;47.992;8.820;2022-11-20T02:52:24;2.30;;;2.10;;
48042;SDS011;33988;47.992;8.820;2022-11-20T02:54:52;2.53;;;2.15;;
48042;SDS011;33988;47.992;8.820;2022-11-20T02:57:21;2.22;;;2.03;;
48042;SDS011;33988;47.992;8.820;2022-11-20T02:59:50;2.50;;;1.80;;
48042;SDS011;33988;47.992;8.820;2022-11-20T03:02:19;2.25;;;2.05;;
48042;SDS011;33988;47.992;8.820;2022-11-20T03:04:46;2.25;;;1.90;;
48042;SDS011;33988;47.992;8.820;2022-11-20T03:07:16;2.47;;;1.90;;
48042;SDS011;33988;47.992;8.820;2022-11-20T03:09:45;2.63;;;2.10;;
48042;SDS011;33988;47.992;8.820;2022-11-20T03:12:17;2.45;;;1.90;;
48042;SDS011;33988;47.992;8.820;2022-11-20T03:14:45;2.58;;;2.13;;
48042;SDS011;33988;47.992;8.820;2022-11-20T03:17:18;2.30;;;1.83;;
48042;SDS011;33988;47.992;8.820;2022-11-20T03:19:48;2.35;;;2.03;;
48042;SDS011;33988;47.992;8.820;2022-11-20T03:22:17;2.25;;;1.80;;
48042;SDS011;33988;47.992;8.820;2022-11-20T03:24:44;2.47;;;2.00;;
48042;SDS011;33988;47.992;8.820;2022-11-20T03:27:11;1.98;;;1.75;;
48042;SDS011;33988;47.992;8.820;2022-11-20T03:29:38;2.00;;;1.75;;
48042;SDS011;33988;47.992;8.820;2022-11-20T03:32:09;3.13;;;1.95;;
48042;SDS011;33988;47.992;8.820;2022-11-20T03:34:36;1.98;;;1.77;;
48042;SDS011;33988;47.992;8.820;2022-11-20T03:37:06;5.63;;;2.13;;
48042;SDS011;33988;47.992;8.820;2022-11-20T03:39:33;1.88;;;1.48;;
48042;SDS011;33988;47.992;8.820;2022-11-20T03:42:02;2.03;;;1.80;;
48042;SDS011;33988;47.992;8.820;2022-11-20T03:44:49;3.25;;;2.17;;
48042;SDS011;33988;47.992;8.820;2022-11-20T03:47:16;4.25;;;2.60;;
48042;SDS011;33988;47.992;8.820;2022-11-20T03:49:43;4.28;;;2.65;;
48042;SDS011;33988;47.992;8.820;2022-11-20T03:52:12;2.42;;;2.05;;
48042;SDS011;33988;47.992;8.820;2022-11-20T03:54:42;3.17;;;2.63;;
48042;SDS011;33988;47.992;8.820;2022-11-20T03:57:09;2.50;;;2.17;;
48042;SDS011;33988;47.992;8.820;2022-11-20T03:59:38;2.42;;;1.95;;
48042;SDS011;33988;47.992;8.820;2022-11-20T04:02:05;2.42;;;2.22;;
48042;SDS011;33988;47.992;8.820;2022-11-20T04:04:32;2.63;;;2.28;;
48042;SDS011;33988;47.992;8.820;2022-11-20T04:07:03;2.97;;;2.13;;
48042;SDS011;33988;47.992;8.820;2022-11-20T04:09:30;2.78;;;1.92;;
48042;SDS011;33988;47.992;8.820;2022-11-20T04:11:57;2.15;;;1.92;;
48042;SDS011;33988;47.992;8.820;2022-11-20T04:14:24;2.17;;;1.98;;
48042;SDS011;33988;47.992;8.820;2022-11-20T04:19:22;1.65;;;1.40;;
48042;SDS011;33988;47.992;8.820;2022-11-20T04:21:51;2.22;;;1.92;;
48042;SDS011;33988;47.992;8.820;2022-11-20T04:24:18;3.95;;;2.13;;
48042;SDS011;33988;47.992;8.820;2022-11-20T04:26:48;3.70;;;2.20;;
48042;SDS011;33988;47.992;8.820;2022-11-20T04:29:17;3.17;;;2.22;;
48042;SDS011;33988;47.992;8.820;2022-11-20T04:31:45;2.40;;;1.70;;
48042;SDS011;33988;47.992;8.820;2022-11-20T04:34:12;2.30;;;1.73;;
48042;SDS011;33988;47.992;8.820;2022-11-20T04:36:44;2.60;;;2.05;;
48042;SDS011;33988;47.992;8.820;2022-11-20T04:39:14;2.03;;;1.85;;
48042;SDS011;33988;47.992;8.820;2022-11-20T04:41:44;2.28;;;1.95;;
48042;SDS011;33988;47.992;8.820;2022-11-20T04:44:11;1.90;;;1.70;;
48042;SDS011;33988;47.992;8.820;2022-11-20T04:46:42;2.70;;;2.00;;
48042;SDS011;33988;47.992;8.820;2022-11-20T04:49:10;3.38;;;2.30;;
48042;SDS011;33988;47.992;8.820;2022-11-20T04:51:40;2.63;;;2.35;;
48042;SDS011;33988;47.992;8.820;2022-11-20T04:54:11;2.13;;;1.80;;
48042;SDS011;33988;47.992;8.820;2022-11-20T04:56:42;2.50;;;1.95;;
48042;SDS011;33988;47.992;8.820;2022-11-20T04:59:10;2.58;;;1.77;;
48042;SDS011;33988;47.992;8.820;2022-11-20T05:01:36;2.03;;;1.83;;
48042;SDS011;33988;47.992;8.820;2022-11-20T05:04:03;3.05;;;2.33;;
48042;SDS011;33988;47.992;8.820;2022-11-20T05:06:31;3.90;;;2.35;;
48042;SDS011;33988;47.992;8.820;2022-11-20T05:08:58;2.33;;;2.13;;
48042;SDS011;33988;47.992;8.820;2022-11-20T05:11:28;2.78;;;2.10;;
48042;SDS011;33988;47.992;8.820;2022-11-20T05:13:55;2.58;;;2.17;;
48042;SDS011;33988;47.992;8.820;2022-11-20T05:16:27;3.17;;;2.42;;
48042;SDS011;33988;47.992;8.820;2022-11-20T05:18:54;3.53;;;2.40;;
48042;SDS011;33988;47.992;8.820;2022-11-20T05:21:21;2.92;;;2.28;;
48042;SDS011;33988;47.992;8.820;2022-11-20T05:23:49;2.78;;;2.47;;
48042;SDS011;33988;47.992;8.820;2022-11-20T05:26:19;2.42;;;2.08;;
48042;SDS011;33988;47.992;8.820;2022-11-20T05:28:50;2.42;;;2.20;;
48042;SDS011;33988;47.992;8.820;2022-11-20T05:31:18;2.30;;;2.05;;
48042;SDS011;33988;47.992;8.820;2022-11-20T05:33:53;3.55;;;2.58;;
48042;SDS011;33988;47.992;8.820;2022-11-20T05:36:22;2.70;;;2.25;;
48042;SDS011;33988;47.992;8.820;2022-11-20T05:38:49;3.28;;;2.47;;
48042;SDS011;33988;47.992;8.820;2022-11-20T05:41:19;3.00;;;1.95;;
48042;SDS011;33988;47.992;8.820;2022-11-20T05:43:47;3.15;;;2.50;;
48042;SDS011;33988;47.992;8.820;2022-11-20T05:46:17;2.63;;;2.15;;
48042;SDS011;33988;47.992;8.820;2022-11-20T05:48:53;2.83;;;2.05;;
48042;SDS011;33988;47.992;8.820;2022-11-20T05:51:20;3.50;;;2.05;;
48042;SDS011;33988;47.992;8.820;2022-11-20T05:53:50;3.35;;;2.42;;
48042;SDS011;33988;47.992;8.820;2022-11-20T05:56:18;2.65;;;2.33;;
48042;SDS011;33988;47.992;8.820;2022-11-20T05:58:49;2.45;;;2.13;;
48042;SDS011;33988;47.992;8.820;2022-11-20T06:01:17;2.67;;;2.30;;
48042;SDS011;33988;47.992;8.820;2022-11-20T06:03:50;2.47;;;2.28;;
48042;SDS011;33988;47.992;8.820;2022-11-20T06:06:19;2.30;;;2.08;;
48042;SDS011;33988;47.992;8.820;2022-11-20T06:08:48;3.53;;;1.70;;
48042;SDS011;33988;47.992;8.820;2022-11-20T06:11:15;2.20;;;2.00;;
48042;SDS011;33988;47.992;8.820;2022-11-20T06:13:45;3.08;;;2.22;;
48042;SDS011;33988;47.992;8.820;2022-11-20T06:16:14;1.92;;;1.67;;
48042;SDS011;33988;47.992;8.820;2022-11-20T06:18:43;3.35;;;2.50;;
48042;SDS011;33988;47.992;8.820;2022-11-20T06:21:20;2.65;;;2.13;;
48042;SDS011;33988;47.992;8.820;2022-11-20T06:23:49;2.60;;;2.20;;
48042;SDS011;33988;47.992;8.820;2022-11-20T06:26:20;3.15;;;2.08;;
48042;SDS011;33988;47.992;8.820;2022-11-20T06:28:53;2.60;;;2.10;;
48042;SDS011;33988;47.992;8.820;2022-11-20T06:31:22;2.42;;;2.13;;
48042;SDS011;33988;47.992;8.820;2022-11-20T06:33:51;2.58;;;2.25;;
48042;SDS011;33988;47.992;8.820;2022-11-20T06:36:20;2.78;;;2.28;;
48042;SDS011;33988;47.992;8.820;2022-11-20T06:38:48;2.45;;;2.17;;
48042;SDS011;33988;47.992;8.820;2022-11-20T06:41:17;3.15;;;2.13;;
48042;SDS011;33988;47.992;8.820;2022-11-20T06:43:50;2.95;;;2.33;;
48042;SDS011;33988;47.992;8.820;2022-11-20T06:46:18;2.83;;;2.00;;
48042;SDS011;33988;47.992;8.820;2022-11-20T06:48:48;2.13;;;1.77;;
48042;SDS011;33988;47.992;8.820;2022-11-20T06:51:18;3.38;;;2.08;;
48042;SDS011;33988;47.992;8.820;2022-11-20T06:53:47;2.10;;;1.77;;
48042;SDS011;33988;47.992;8.820;2022-11-20T06:56:14;42.10;;;24.23;;
48042;SDS011;33988;47.992;8.820;2022-11-20T06:58:41;34.22;;;21.15;;
48042;SDS011;33988;47.992;8.820;2022-11-20T07:01:09;15.52;;;10.30;;
48042;SDS011;33988;47.992;8.820;2022-11-20T07:03:41;8.85;;;5.65;;
48042;SDS011;33988;47.992;8.820;2022-11-20T07:06:09;5.10;;;3.88;;
48042;SDS011;33988;47.992;8.820;2022-11-20T07:08:36;3.72;;;3.05;;
48042;SDS011;33988;47.992;8.820;2022-11-20T07:11:05;3.30;;;2.80;;
48042;SDS011;33988;47.992;8.820;2022-11-20T07:13:33;2.75;;;2.42;;
48042;SDS011;33988;47.992;8.820;2022-11-20T07:16:04;2.83;;;2.40;;
48042;SDS011;33988;47.992;8.820;2022-11-20T07:18:33;2.38;;;2.10;;
48042;SDS011;33988;47.992;8.820;2022-11-20T07:21:05;3.10;;;2.55;;
48042;SDS011;33988;47.992;8.820;2022-11-20T07:23:35;2.80;;;2.38;;
48042;SDS011;33988;47.992;8.820;2022-11-20T07:26:03;2.45;;;2.08;;
48042;SDS011;33988;47.992;8.820;2022-11-20T07:28:38;3.78;;;2.42;;
48042;SDS011;33988;47.992;8.820;2022-11-20T07:31:05;2.33;;;2.10;;
48042;SDS011;33988;47.992;8.820;2022-11-20T07:33:41;2.72;;;2.13;;
48042;SDS011;33988;47.992;8.820;2022-11-20T07:36:08;3.03;;;2.22;;
48042;SDS011;33988;47.992;8.820;2022-11-20T07:38:35;2.60;;;2.00;;
48042;SDS011;33988;47.992;8.820;2022-11-20T07:41:03;4.22;;;2.80;;
48042;SDS011;33988;47.992;8.820;2022-11-20T07:43:30;2.63;;;2.22;;
48042;SDS011;33988;47.992;8.820;2022-11-20T07:46:03;2.65;;;2.10;;
48042;SDS011;33988;47.992;8.820;2022-11-20T07:48:33;2.60;;;2.15;;
48042;SDS011;33988;47.992;8.820;2022-11-20T07:51:00;5.03;;;2.03;;
48042;SDS011;33988;47.992;8.820;2022-11-20T07:53:27;2.13;;;1.88;;
48042;SDS011;33988;47.992;8.820;2022-11-20T07:55:54;2.22;;;1.95;;
48042;SDS011;33988;47.992;8.820;2022-11-20T07:58:28;2.78;;;1.70;;
48042;SDS011;33988;47.992;8.820;2022-11-20T08:00:56;3.85;;;1.92;;
48042;SDS011;33988;47.992;8.820;2022-11-20T08:03:23;2.22;;;1.92;;
48042;SDS011;33988;47.992;8.820;2022-11-20T08:05:51;1.85;;;1.58;;
48042;SDS011;33988;47.992;8.820;2022-11-20T08:08:20;1.83;;;1.52;;
48042;SDS011;33988;47.992;8.820;2022-11-20T08:10:49;2.00;;;1.73;;
48042;SDS011;33988;47.992;8.820;2022-11-20T08:13:16;2.28;;;1.70;;
48042;SDS011;33988;47.992;8.820;2022-11-20T08:16:01;1.40;;;1.30;;
48042;SDS011;33988;47.992;8.820;2022-11-20T08:18:31;1.60;;;1.50;;
48042;SDS011;33988;47.992;8.820;2022-11-20T08:21:03;1.42;;;1.33;;
48042;SDS011;33988;47.992;8.820;2022-11-20T08:23:30;1.40;;;1.30;;
48042;SDS011;33988;47.992;8.820;2022-11-20T08:25:57;2.20;;;1.42;;
48042;SDS011;33988;47.992;8.820;2022-11-20T08:28:24;3.17;;;1.38;;
48042;SDS011;33988;47.992;8.820;2022-11-20T08:30:57;2.60;;;1.60;;
48042;SDS011;33988;47.992;8.820;2022-11-20T08:33:25;2.10;;;1.60;;
48042;SDS011;33988;47.992;8.820;2022-11-20T08:35:52;1.58;;;1.48;;
48042;SDS011;33988;47.992;8.820;2022-11-20T08:38:24;2.35;;;1.60;;
48042;SDS011;33988;47.992;8.820;2022-11-20T08:40:56;2.38;;;1.90;;
48042;SDS011;33988;47.992;8.820;2022-11-20T08:43:46;2.67;;;2.00;;
48042;SDS011;33988;47.992;8.820;2022-11-20T08:46:22;3.08;;;2.00;;
48042;SDS011;33988;47.992;8.820;2022-11-20T08:48:53;2.20;;;1.80;;
48042;SDS011;33988;47.992;8.820;2022-11-20T08:51:20;2.67;;;1.70;;
48042;SDS011;33988;47.992;8.820;2022-11-20T08:53:47;2.55;;;1.80;;
48042;SDS011;33988;47.992;8.820;2022-11-20T08:56:15;2.17;;;1.58;;
48042;SDS011;33988;47.992;8.820;2022-11-20T08:58:43;1.83;;;1.70;;
48042;SDS011;33988;47.992;8.820;2022-11-20T09:01:33;2.58;;;1.77;;
48042;SDS011;33988;47.992;8.820;2022-11-20T09:04:03;2.53;;;2.00;;
48042;SDS011;33988;47.992;8.820;2022-11-20T09:06:30;3.05;;;2.22;;
48042;SDS011;33988;47.992;8.820;2022-11-20T09:08:57;3.95;;;2.25;;
48042;SDS011;33988;47.992;8.820;2022-11-20T09:11:31;2.17;;;1.85;;
48042;SDS011;33988;47.992;8.820;2022-11-20T09:13:59;2.05;;;1.67;;
48042;SDS011;33988;47.992;8.820;2022-11-20T09:16:29;1.92;;;1.50;;
48042;SDS011;33988;47.992;8.820;2022-11-20T09:18:56;1.30;;;1.20;;
48042;SDS011;33988;47.992;8.820;2022-11-20T09:21:42;1.55;;;1.38;;
48042;SDS011;33988;47.992;8.820;2022-11-20T09:24:09;1.58;;;1.40;;
48042;SDS011;33988;47.992;8.820;2022-11-20T09:26:42;1.40;;;1.30;;
48042;SDS011;33988;47.992;8.820;2022-11-20T09:29:09;2.65;;;1.45;;
48042;SDS011;33988;47.992;8.820;2022-11-20T09:31:39;2.65;;;1.13;;
48042;SDS011;33988;47.992;8.820;2022-11-20T09:34:09;2.25;;;1.40;;
48042;SDS011;33988;47.992;8.820;2022-11-20T09:36:36;1.73;;;1.30;;
48042;SDS011;33988;47.992;8.820;2022-11-20T09:39:03;1.60;;;1.23;;
48042;SDS011;33988;47.992;8.820;2022-11-20T09:44:31;2.05;;;1.50;;
48042;SDS011;33988;47.992;8.820;2022-11-20T09:53:34;2.00;;;1.30;;
48042;SDS011;33988;47.992;8.820;2022-11-20T09:56:20;3.17;;;1.75;;
48042;SDS011;33988;47.992;8.820;2022-11-20T09:58:51;1.83;;;1.15;;
48042;SDS011;33988;47.992;8.820;2022-11-20T10:01:22;1.45;;;1.20;;
48042;SDS011;33988;47.992;8.820;2022-11-20T10:03:57;1.17;;;1.00;;
48042;SDS011;33988;47.992;8.820;2022-11-20T10:09:43;10.02;;;4.50;;
48042;SDS011;33988;47.992;8.820;2022-11-20T10:27:31;1.33;;;1.20;;
48042;SDS011;33988;47.992;8.820;2022-11-20T10:30:18;1.23;;;1.10;;
48042;SDS011;33988;47.992;8.820;2022-11-20T10:32:54;2.08;;;1.23;;
48042;SDS011;33988;47.992;8.820;2022-11-20T10:35:52;1.27;;;1.10;;
48042;SDS011;33988;47.992;8.820;2022-11-20T10:38:25;1.35;;;1.25;;
48042;SDS011;33988;47.992;8.820;2022-11-20T10:41:07;1.27;;;1.17;;
48042;SDS011;33988;47.992;8.820;2022-11-20T10:44:02;1.55;;;1.25;;
48042;SDS011;33988;47.992;8.820;2022-11-20T10:46:43;1.98;;;1.20;;
48042;SDS011;33988;47.992;8.820;2022-11-20T10:49:13;2.28;;;1.45;;
48042;SDS011;33988;47.992;8.820;2022-11-20T10:51:52;1.42;;;1.02;;
48042;SDS011;33988;47.992;8.820;2022-11-20T10:54:44;1.00;;;0.88;;
48042;SDS011;33988;47.992;8.820;2022-11-20T11:05:18;1.75;;;0.90;;
48042;SDS011;33988;47.992;8.820;2022-11-20T11:08:04;0.80;;;0.80;;
48042;SDS011;33988;47.992;8.820;2022-11-20T11:15:53;1.70;;;1.00;;
48042;SDS011;33988;47.992;8.820;2022-11-20T11:18:24;2.50;;;1.20;;
48042;SDS011;33988;47.992;8.820;2022-11-20T11:21:03;1.27;;;0.88;;
48042;SDS011;33988;47.992;8.820;2022-11-20T11:23:41;2.75;;;0.95;;
48042;SDS011;33988;47.992;8.820;2022-11-20T11:26:19;1.10;;;0.70;;
48042;SDS011;33988;47.992;8.820;2022-11-20T11:31:31;0.70;;;0.70;;
48042;SDS011;33988;47.992;8.820;2022-11-20T11:34:07;0.50;;;0.50;;
48042;SDS011;33988;47.992;8.820;2022-11-20T11:36:39;0.43;;;0.43;;
48042;SDS011;33988;47.992;8.820;2022-11-20T11:39:14;1.63;;;0.65;;
48042;SDS011;33988;47.992;8.820;2022-11-20T11:41:44;0.60;;;0.60;;
48042;SDS011;33988;47.992;8.820;2022-11-20T11:47:01;3.40;;;0.80;;
48042;SDS011;33988;47.992;8.820;2022-11-20T11:49:30;1.40;;;0.70;;
48042;SDS011;33988;47.992;8.820;2022-11-20T11:52:16;0.60;;;0.60;;
48042;SDS011;33988;47.992;8.820;2022-11-20T11:54:47;0.50;;;0.50;;
48042;SDS011;33988;47.992;8.820;2022-11-20T12:00:10;2.92;;;1.80;;
48042;SDS011;33988;47.992;8.820;2022-11-20T12:05:24;0.60;;;0.60;;
48042;SDS011;33988;47.992;8.820;2022-11-20T12:08:05;0.93;;;0.77;;
48042;SDS011;33988;47.992;8.820;2022-11-20T12:11:06;0.80;;;0.60;;
48042;SDS011;33988;47.992;8.820;2022-11-20T12:17:08;0.60;;;0.60;;
48042;SDS011;33988;47.992;8.820;2022-11-20T12:19:40;2.90;;;0.52;;
48042;SDS011;33988;47.992;8.820;2022-11-20T12:30:23;1.08;;;0.70;;
48042;SDS011;33988;47.992;8.820;2022-11-20T12:53:53;0.75;;;0.70;;
48042;SDS011;33988;47.992;8.820;2022-11-20T12:56:50;1.13;;;0.80;;
48042;SDS011;33988;47.992;8.820;2022-11-20T13:08:33;0.70;;;0.70;;
48042;SDS011;33988;47.992;8.820;2022-11-20T13:16:29;0.90;;;0.70;;
48042;SDS011;33988;47.992;8.820;2022-11-20T13:19:10;1.13;;;0.70;;
48042;SDS011;33988;47.992;8.820;2022-11-20T13:21:43;2.30;;;1.17;;
48042;SDS011;33988;47.992;8.820;2022-11-20T13:27:04;2.15;;;1.88;;
48042;SDS011;33988;47.992;8.820;2022-11-20T13:29:36;1.90;;;1.40;;
48042;SDS011;33988;47.992;8.820;2022-11-20T13:37:38;5.00;;;2.88;;
48042;SDS011;33988;47.992;8.820;2022-11-20T13:40:20;3.08;;;1.88;;
48042;SDS011;33988;47.992;8.820;2022-11-20T13:43:01;2.55;;;1.90;;
48042;SDS011;33988;47.992;8.820;2022-11-20T13:45:39;1.45;;;1.13;;
48042;SDS011;33988;47.992;8.820;2022-11-20T13:48:23;1.85;;;0.95;;
48042;SDS011;33988;47.992;8.820;2022-11-20T13:50:55;2.17;;;1.50;;
48042;SDS011;33988;47.992;8.820;2022-11-20T14:02:18;2.28;;;1.58;;
48042;SDS011;33988;47.992;8.820;2022-11-20T14:04:49;3.67;;;2.05;;
48042;SDS011;33988;47.992;8.820;2022-11-20T14:07:44;2.75;;;1.80;;
48042;SDS011;33988;47.992;8.820;2022-11-20T14:10:25;2.47;;;1.30;;
48042;SDS011;33988;47.992;8.820;2022-11-20T14:12:58;2.10;;;1.30;;
48042;SDS011;33988;47.992;8.820;2022-11-20T14:15:39;2.15;;;1.05;;
48042;SDS011;33988;47.992;8.820;2022-11-20T14:18:11;1.30;;;1.10;;
48042;SDS011;33988;47.992;8.820;2022-11-20T14:20:46;2.13;;;1.30;;
48042;SDS011;33988;47.992;8.820;2022-11-20T14:23:22;2.03;;;0.98;;
48042;SDS011;33988;47.992;8.820;2022-11-20T14:25:55;1.52;;;1.30;;
48042;SDS011;33988;47.992;8.820;2022-11-20T14:28:28;1.65;;;1.10;;
48042;SDS011;33988;47.992;8.820;2022-11-20T14:30:57;1.20;;;1.10;;
48042;SDS011;33988;47.992;8.820;2022-11-20T14:33:28;1.55;;;1.02;;
48042;SDS011;33988;47.992;8.820;2022-11-20T14:36:02;1.40;;;1.10;;
48042;SDS011;33988;47.992;8.820;2022-11-20T14:38:31;1.40;;;1.20;;
48042;SDS011;33988;47.992;8.820;2022-11-20T14:41:06;1.60;;;1.05;;
48042;SDS011;33988;47.992;8.820;2022-11-20T14:43:54;1.43;;;1.00;;
48042;SDS011;33988;47.992;8.820;2022-11-20T14:46:23;2.50;;;1.55;;
48042;SDS011;33988;47.992;8.820;2022-11-20T14:48:55;1.27;;;1.10;;
48042;SDS011;33988;47.992;8.820;2022-11-20T14:51:34;2.92;;;1.10;;
48042;SDS011;33988;47.992;8.820;2022-11-20T14:54:11;2.55;;;1.40;;
48042;SDS011;33988;47.992;8.820;2022-11-20T14:59:23;1.48;;;1.10;;
48042;SDS011;33988;47.992;8.820;2022-11-20T15:02:00;1.63;;;0.95;;
48042;SDS011;33988;47.992;8.820;2022-11-20T15:04:43;2.20;;;1.40;;
48042;SDS011;33988;47.992;8.820;2022-11-20T15:07:26;1.83;;;1.30;;
48042;SDS011;33988;47.992;8.820;2022-11-20T15:10:09;2.17;;;1.17;;
48042;SDS011;33988;47.992;8.820;2022-11-20T15:12:39;2.22;;;1.58;;
48042;SDS011;33988;47.992;8.820;2022-11-20T15:15:30;2.13;;;1.50;;
48042;SDS011;33988;47.992;8.820;2022-11-20T15:18:14;2.45;;;1.40;;
48042;SDS011;33988;47.992;8.820;2022-11-20T15:20:57;1.67;;;1.30;;
48042;SDS011;33988;47.992;8.820;2022-11-20T15:23:28;1.50;;;1.30;;
48042;SDS011;33988;47.992;8.820;2022-11-20T15:25:56;2.00;;;1.35;;
48042;SDS011;33988;47.992;8.820;2022-11-20T15:28:30;2.00;;;1.33;;
48042;SDS011;33988;47.992;8.820;2022-11-20T15:31:03;2.25;;;1.38;;
48042;SDS011;33988;47.992;8.820;2022-11-20T15:33:32;2.03;;;1.30;;
48042;SDS011;33988;47.992;8.820;2022-11-20T15:36:02;2.85;;;1.50;;
48042;SDS011;33988;47.992;8.820;2022-11-20T15:38:29;5.57;;;1.98;;
48042;SDS011;33988;47.992;8.820;2022-11-20T15:41:01;2.88;;;1.83;;
48042;SDS011;33988;47.992;8.820;2022-11-20T15:43:31;1.98;;;1.40;;
48042;SDS011;33988;47.992;8.820;2022-11-20T15:46:02;6.20;;;3.13;;
48042;SDS011;33988;47.992;8.820;2022-11-20T15:48:42;16.77;;;7.13;;
48042;SDS011;33988;47.992;8.820;2022-11-20T15:51:30;10.52;;;4.80;;
48042;SDS011;33988;47.992;8.820;2022-11-20T15:54:13;7.40;;;3.55;;
48042;SDS011;33988;47.992;8.820;2022-11-20T15:56:44;5.60;;;2.85;;
48042;SDS011;33988;47.992;8.820;2022-11-20T15:59:11;4.53;;;2.72;;
48042;SDS011;33988;47.992;8.820;2022-11-20T16:01:38;6.20;;;3.10;;
48042;SDS011;33988;47.992;8.820;2022-11-20T16:04:08;4.93;;;2.67;;
48042;SDS011;33988;47.992;8.820;2022-11-20T16:06:41;7.18;;;2.85;;
48042;SDS011;33988;47.992;8.820;2022-11-20T16:09:09;4.15;;;2.40;;
48042;SDS011;33988;47.992;8.820;2022-11-20T16:11:38;20.63;;;9.25;;
48042;SDS011;33988;47.992;8.820;2022-11-20T16:14:08;32.35;;;15.00;;
48042;SDS011;33988;47.992;8.820;2022-11-20T16:16:55;25.08;;;13.02;;
48042;SDS011;33988;47.992;8.820;2022-11-20T16:19:24;15.00;;;7.35;;
48042;SDS011;33988;47.992;8.820;2022-11-20T16:21:51;11.43;;;5.65;;
48042;SDS011;33988;47.992;8.820;2022-11-20T16:26:52;10.18;;;6.05;;
48042;SDS011;33988;47.992;8.820;2022-11-20T16:29:20;16.15;;;7.53;;
48042;SDS011;33988;47.992;8.820;2022-11-20T16:31:47;13.18;;;7.63;;
48042;SDS011;33988;47.992;8.820;2022-11-20T16:34:15;11.98;;;6.90;;
48042;SDS011;33988;47.992;8.820;2022-11-20T16:36:45;8.68;;;6.13;;
48042;SDS011;33988;47.992;8.820;2022-11-20T16:39:12;9.07;;;5.72;;
48042;SDS011;33988;47.992;8.820;2022-11-20T16:41:48;11.23;;;6.90;;
48042;SDS011;33988;47.992;8.820;2022-11-20T16:44:17;9.40;;;5.53;;
48042;SDS011;33988;47.992;8.820;2022-11-20T16:46:47;10.07;;;5.63;;
48042;SDS011;33988;47.992;8.820;2022-11-20T16:49:15;9.88;;;6.60;;
48042;SDS011;33988;47.992;8.820;2022-11-20T16:51:42;9.70;;;6.32;;
48042;SDS011;33988;47.992;8.820;2022-11-20T16:54:12;7.28;;;5.50;;
48042;SDS011;33988;47.992;8.820;2022-11-20T16:56:46;9.18;;;7.30;;
48042;SDS011;33988;47.992;8.820;2022-11-20T16:59:17;11.38;;;6.70;;
48042;SDS011;33988;47.992;8.820;2022-11-20T17:01:44;6.85;;;5.57;;
48042;SDS011;33988;47.992;8.820;2022-11-20T17:04:15;10.05;;;6.35;;
48042;SDS011;33988;47.992;8.820;2022-11-20T17:06:44;11.70;;;7.53;;
48042;SDS011;33988;47.992;8.820;2022-11-20T17:09:11;8.60;;;6.05;;
48042;SDS011;33988;47.992;8.820;2022-11-20T17:11:43;15.88;;;9.32;;
48042;SDS011;33988;47.992;8.820;2022-11-20T17:14:13;14.45;;;9.43;;
48042;SDS011;33988;47.992;8.820;2022-11-20T17:16:40;14.23;;;8.70;;
48042;SDS011;33988;47.992;8.820;2022-11-20T17:19:08;13.30;;;8.60;;
48042;SDS011;33988;47.992;8.820;2022-11-20T17:21:35;13.25;;;7.38;;
48042;SDS011;33988;47.992;8.820;2022-11-20T17:24:06;8.32;;;5.70;;
48042;SDS011;33988;47.992;8.820;2022-11-20T17:26:46;10.80;;;7.28;;
48042;SDS011;33988;47.992;8.820;2022-11-20T17:29:17;11.38;;;7.97;;
48042;SDS011;33988;47.992;8.820;2022-11-20T17:31:49;12.68;;;8.15;;